Time;durP1;ratioP1;P1;durP2;ratioP2;P2;SDS_P1;SDS_P2;PMS_P1;PMS_P2;Temp;Humidity;BMP_temperature;BMP_pressure;BME280_temperature;BME280_humidity;BME280_pressure;Samples;Min_cycle;Max_cycle;Signal;HPM_P1;HPM_P2
2021/04/19 00:47:47;;;;;;;46.00;12.97;;;4.50;99.90;;;11.68;100.00;100750.09;4918554;28;100179;-61
2021/04/19 00:50:18;;;;;;;37.63;12.90;;;4.40;99.90;;;19.24;100.00;100747.06;4928838;28;99682;-61
2021/04/19 00:52:45;;;;;;;37.27;12.63;;;4.50;99.90;;;5.62;100.00;100767.03;4938960;28;100006;-61
2021/04/19 00:55:15;;;;;;;88.77;14.57;;;4.50;99.90;;;7.40;100.00;100763.63;4948976;28;100107;-60
2021/04/19 00:57:42;;;;;;;56.97;12.73;;;4.50;99.90;;;6.00;100.00;100766.84;4948581;28;99858;-62
2021/04/19 01:00:13;;;;;;;84.10;14.20;;;4.50;99.90;;;5.62;100.00;100767.91;4949929;28;100044;-62
2021/04/19 01:02:41;;;;;;;60.87;12.97;;;4.60;99.90;;;5.80;100.00;100778.94;4954391;28;99517;-62
2021/04/19 01:05:12;;;;;;;67.27;13.87;;;4.60;99.90;;;6.29;100.00;100778.75;4956390;28;97676;-60
2021/04/19 01:07:39;;;;;;;30.70;10.50;;;4.70;99.90;;;5.73;100.00;100780.34;4955913;28;99623;-60
2021/04/19 01:10:09;;;;;;;62.47;12.97;;;4.70;99.90;;;5.85;100.00;100779.44;4959799;28;97910;-61
2021/04/19 01:12:36;;;;;;;74.50;14.10;;;4.70;99.90;;;5.60;100.00;100777.78;4941255;28;97941;-62
2021/04/19 01:15:07;;;;;;;72.67;13.97;;;4.70;99.90;;;5.46;100.00;100780.59;4946368;28;100768;-59
2021/04/19 01:17:52;;;;;;;54.70;12.90;;;4.80;99.90;;;5.80;100.00;100781.59;4948890;28;100361;-61
2021/04/19 01:20:22;;;;;;;65.80;11.63;;;4.80;99.90;;;6.07;100.00;100776.00;4975221;28;89528;-61
2021/04/19 01:22:51;;;;;;;75.07;12.30;;;4.70;99.90;;;6.17;100.00;100773.53;4960931;28;96385;-62
2021/04/19 01:25:21;;;;;;;66.33;11.33;;;4.70;99.90;;;6.24;100.00;100769.41;4932371;28;102829;-61
2021/04/19 01:27:50;;;;;;;65.40;13.20;;;4.60;99.90;;;6.20;100.00;100770.59;4959839;28;99627;-61
2021/04/19 01:30:20;;;;;;;58.23;11.93;;;4.60;99.90;;;6.19;100.00;100766.25;4962564;28;99739;-62
2021/04/19 01:32:56;;;;;;;70.67;12.27;;;4.60;99.90;;;6.15;100.00;100770.13;4954895;28;99447;-61
2021/04/19 01:35:23;;;;;;;69.67;11.60;;;4.60;99.90;;;5.29;100.00;100768.59;4943183;28;100208;-61
2021/04/19 01:37:51;;;;;;;83.93;11.50;;;4.60;99.90;;;5.17;100.00;100774.81;4945965;28;99840;-61
2021/04/19 01:40:18;;;;;;;64.07;11.27;;;4.60;99.90;;;5.60;100.00;100763.66;4943024;28;99822;-61
2021/04/19 01:42:46;;;;;;;84.20;12.10;;;4.60;99.90;;;5.31;100.00;100766.69;4957254;28;100233;-62
2021/04/19 01:45:15;;;;;;;80.27;12.10;;;4.70;99.90;;;5.22;100.00;100767.34;4938515;28;99929;-62
2021/04/19 01:47:43;;;;;;;75.57;12.40;;;4.70;99.90;;;5.36;100.00;100761.88;4958289;28;99670;-62
2021/04/19 01:50:12;;;;;;;95.73;13.03;;;4.70;99.90;;;5.04;100.00;100764.22;4962301;28;99825;-62
2021/04/19 01:52:40;;;;;;;76.63;10.47;;;4.70;99.90;;;5.59;100.00;100768.13;4960330;28;99805;-62
2021/04/19 01:55:11;;;;;;;88.27;13.17;;;4.70;99.90;;;5.86;100.00;100759.88;4970759;28;99846;-63
2021/04/19 01:57:46;;;;;;;74.60;12.93;;;4.70;99.90;;;5.83;100.00;100769.88;4959801;28;99755;-62
2021/04/19 02:00:13;;;;;;;56.63;11.13;;;4.70;99.90;;;6.02;100.00;100770.22;4940160;28;99816;-62
2021/04/19 02:02:52;;;;;;;68.97;13.87;;;4.70;99.90;;;5.87;100.00;100756.28;4956643;28;100052;-60
2021/04/19 02:05:30;;;;;;;82.10;13.67;;;4.70;99.90;;;5.96;100.00;100768.03;4937037;28;99924;-60
2021/04/19 02:08:08;;;;;;;56.70;12.37;;;4.80;99.90;;;6.40;100.00;100776.09;4965117;28;99773;-61
2021/04/19 02:10:47;;;;;;;62.50;12.60;;;4.80;99.90;;;6.44;100.00;100780.19;4938108;28;99914;-62
2021/04/19 02:13:23;;;;;;;67.57;11.90;;;4.80;99.90;;;6.68;100.00;100774.75;4940762;28;99866;-59
2021/04/19 02:15:58;;;;;;;49.43;12.13;;;4.90;99.90;;;7.30;100.00;100779.50;4935283;28;100164;-61
2021/04/19 02:18:43;;;;;;;78.27;12.33;;;4.90;99.90;;;7.45;100.00;100769.41;4959516;28;99619;-62
2021/04/19 02:21:16;;;;;;;50.57;11.83;;;5.00;99.90;;;6.29;100.00;100761.94;4943879;28;99675;-61
2021/04/19 02:23:49;;;;;;;62.17;12.80;;;5.00;99.90;;;7.07;100.00;100765.41;4957393;28;94373;-61
2021/04/19 02:26:26;;;;;;;62.33;12.20;;;5.10;99.90;;;7.33;100.00;100765.94;4952287;28;97831;-61
2021/04/19 02:29:03;;;;;;;68.07;12.37;;;5.10;99.90;;;7.50;100.00;100769.88;4946207;28;96666;-61
2021/04/19 02:31:36;;;;;;;45.83;10.57;;;5.10;99.90;;;7.35;100.00;100769.31;4959223;28;94196;-62
2021/04/19 02:34:08;;;;;;;36.37;12.10;;;5.10;99.90;;;7.32;100.00;100776.72;4973935;28;99141;-62
2021/04/19 02:36:43;;;;;;;49.93;12.30;;;5.20;99.90;;;7.02;100.00;100764.94;4960378;28;94506;-61
2021/04/19 02:39:10;;;;;;;44.73;10.37;;;5.20;99.90;;;7.06;100.00;100776.16;4962113;28;94283;-61
2021/04/19 02:41:54;;;;;;;59.20;11.80;;;5.20;99.90;;;5.80;100.00;100775.44;4964579;28;92688;-62
2021/04/19 02:44:22;;;;;;;61.73;13.40;;;5.30;99.90;;;5.89;100.00;100772.13;4965631;28;86310;-62
2021/04/19 02:47:03;;;;;;;57.10;12.63;;;5.30;99.90;;;6.17;100.00;100774.38;4960066;28;91207;-61
2021/04/19 02:49:36;;;;;;;52.27;12.20;;;5.30;99.90;;;5.97;100.00;100783.84;4974019;28;93418;-62
2021/04/19 02:52:06;;;;;;;59.93;12.63;;;5.30;99.90;;;5.80;100.00;100778.94;4974843;28;91207;-61
2021/04/19 02:54:37;;;;;;;59.30;11.73;;;5.30;99.90;;;5.86;100.00;100785.59;4975748;28;95426;-62
2021/04/19 02:57:17;;;;;;;51.83;11.73;;;5.30;99.90;;;5.97;100.00;100783.84;4982369;28;97653;-61
2021/04/19 02:59:45;;;;;;;45.30;12.60;;;5.30;99.90;;;6.01;100.00;100779.16;4972937;28;75166;-61
2021/04/19 03:02:12;;;;;;;49.07;13.20;;;5.30;99.90;;;6.93;100.00;100781.63;4973248;28;70238;-61
2021/04/19 03:04:40;;;;;;;41.57;12.23;;;5.40;99.90;;;6.86;100.00;100785.75;4990585;28;80053;-62
2021/04/19 03:07:14;;;;;;;45.87;12.60;;;5.40;99.90;;;6.16;100.00;100780.66;4992216;28;75063;-61
2021/04/19 03:09:47;;;;;;;46.93;12.17;;;5.40;99.90;;;6.18;100.00;100770.75;4970397;28;74604;-61
2021/04/19 03:12:27;;;;;;;50.57;12.03;;;5.40;99.90;;;5.97;100.00;100777.69;4966763;28;89486;-61
2021/04/19 03:14:58;;;;;;;47.97;11.70;;;5.40;99.90;;;6.60;100.00;100774.50;4972289;28;71871;-61
2021/04/19 03:17:28;;;;;;;50.70;11.17;;;5.40;99.90;;;5.94;100.00;100772.59;4975391;28;79151;-62
2021/04/19 03:20:29;;;;;;;65.97;12.23;;;5.40;99.90;;;5.93;100.00;100777.09;4976480;28;72737;-62
2021/04/19 03:23:11;;;;;;;47.10;10.53;;;5.40;99.90;;;6.19;100.00;100776.88;4970892;28;86034;-61
2021/04/19 03:25:48;;;;;;;47.67;11.20;;;5.40;99.90;;;6.16;100.00;100778.00;4972353;28;73878;-62
2021/04/19 03:28:35;;;;;;;47.00;11.47;;;5.40;99.90;;;6.09;100.00;100779.41;4970879;28;78526;-61
2021/04/19 03:31:20;;;;;;;37.40;10.37;;;5.40;99.90;;;6.10;100.00;100778.44;4981402;28;94274;-62
2021/04/19 03:33:48;;;;;;;37.17;10.63;;;5.40;99.90;;;6.24;100.00;100772.91;4962240;28;87813;-60
2021/04/19 03:36:25;;;;;;;52.77;10.83;;;5.40;99.90;;;6.19;100.00;100774.22;4959019;28;81893;-60
2021/04/19 03:38:52;;;;;;;33.63;11.07;;;5.40;99.90;;;6.13;100.00;100770.25;4955477;28;89142;-61
2021/04/19 03:41:24;;;;;;;38.70;11.00;;;5.40;99.90;;;6.09;100.00;100774.09;4966041;28;92994;-61
2021/04/19 03:43:56;;;;;;;38.67;9.93;;;5.40;99.90;;;6.71;100.00;100781.66;4980272;28;77262;-60
2021/04/19 03:46:25;;;;;;;43.53;11.27;;;5.50;99.90;;;6.12;100.00;100779.19;4974262;28;67019;-61
2021/04/19 03:49:12;;;;;;;42.73;11.90;;;5.50;99.90;;;6.03;100.00;100787.88;5004158;28;54043;-61
2021/04/19 03:52:03;;;;;;;55.73;13.03;;;5.50;99.90;;;6.80;100.00;100787.06;4980945;28;61504;-60
2021/04/19 03:54:38;;;;;;;44.00;13.07;;;5.50;99.90;;;6.68;100.00;100793.38;4973989;28;54252;-61
2021/04/19 03:57:08;;;;;;;39.60;12.03;;;5.50;99.90;;;6.69;100.00;100787.06;4977402;28;79375;-60
2021/04/19 03:59:40;;;;;;;37.93;10.77;;;5.50;99.90;;;6.73;100.00;100785.03;4952619;28;85942;-60
2021/04/19 04:02:15;;;;;;;33.10;10.87;;;5.40;99.90;;;6.12;100.00;100795.13;4951136;28;91685;-60
2021/04/19 04:04:59;;;;;;;33.03;11.07;;;5.30;99.90;;;6.05;100.00;100784.13;4958783;28;87263;-60
2021/04/19 04:07:48;;;;;;;28.70;10.90;;;5.30;99.90;;;6.16;100.00;100791.28;4959207;28;90866;-59
2021/04/19 04:10:18;;;;;;;59.57;10.93;;;5.20;99.90;;;6.17;100.00;100797.44;4965865;28;74856;-61
2021/04/19 04:12:45;;;;;;;41.07;11.03;;;5.20;99.90;;;5.95;100.00;100788.44;4949217;28;98400;-60
2021/04/19 04:15:16;;;;;;;57.37;11.67;;;5.20;99.90;;;6.18;100.00;100788.50;4963745;28;73718;-61
2021/04/19 04:17:46;;;;;;;55.57;10.77;;;5.20;99.90;;;6.39;100.00;100794.81;4969397;28;83439;-61
2021/04/19 04:20:24;;;;;;;59.93;11.47;;;5.10;99.90;;;5.94;100.00;100792.03;4968174;28;74340;-61
2021/04/19 04:22:56;;;;;;;60.33;12.17;;;5.00;99.90;;;6.03;100.00;100786.06;4973487;28;65327;-60
2021/04/19 04:25:29;;;;;;;59.33;12.93;;;5.00;99.90;;;5.96;100.00;100787.47;4964094;28;66338;-60
2021/04/19 04:27:56;;;;;;;47.83;10.90;;;5.00;99.90;;;5.95;100.00;100785.78;4980386;28;61321;-61
2021/04/19 04:30:25;;;;;;;43.07;12.80;;;5.00;99.90;;;6.08;100.00;100789.19;4974430;28;69949;-60
2021/04/19 04:33:16;;;;;;;47.90;12.63;;;5.10;99.90;;;6.01;100.00;100792.44;4974896;28;68733;-61
2021/04/19 04:35:47;;;;;;;44.57;12.07;;;5.00;99.90;;;5.94;100.00;100781.41;4972584;28;68597;-59
2021/04/19 04:38:21;;;;;;;59.07;15.10;;;5.10;99.90;;;5.89;100.00;100791.56;4970585;28;78844;-60
2021/04/19 04:40:52;;;;;;;39.33;12.03;;;5.10;99.90;;;5.81;100.00;100793.91;4969049;28;84791;-59
2021/04/19 04:43:22;;;;;;;55.63;13.10;;;5.10;99.90;;;6.01;100.00;100787.13;4949328;28;97949;-60
2021/04/19 04:45:55;;;;;;;47.67;12.93;;;5.10;99.90;;;5.56;100.00;100784.28;4945020;28;94967;-59
2021/04/19 04:48:31;;;;;;;46.73;12.33;;;5.20;99.90;;;5.84;100.00;100795.47;4960231;28;96538;-60
2021/04/19 04:51:05;;;;;;;50.83;14.07;;;5.20;99.90;;;5.89;100.00;100788.06;4972811;28;91351;-61
2021/04/19 04:53:37;;;;;;;97.73;15.93;;;5.20;99.90;;;5.48;100.00;100794.63;4957605;28;95191;-61
2021/04/19 04:56:05;;;;;;;75.20;15.03;;;5.20;99.90;;;5.65;100.00;100788.06;4950712;28;91912;-60
2021/04/19 04:58:35;;;;;;;136.67;16.27;;;5.20;99.90;;;5.72;100.00;100786.63;4967902;28;90687;-59
2021/04/19 05:01:06;;;;;;;98.80;15.43;;;5.10;99.90;;;5.84;100.00;100780.41;4968604;28;94854;-60
2021/04/19 05:03:32;;;;;;;122.87;15.33;;;5.10;99.90;;;5.66;100.00;100782.63;4968063;28;93792;-61
2021/04/19 05:06:00;;;;;;;82.40;14.03;;;5.10;99.90;;;5.96;100.00;100789.28;4982756;28;74208;-61
2021/04/19 05:08:26;;;;;;;99.80;15.53;;;5.20;99.90;;;5.90;100.00;100785.28;4979993;28;80061;-60
2021/04/19 05:10:56;;;;;;;126.77;16.93;;;5.20;99.90;;;5.65;100.00;100791.56;4975514;28;82932;-61
2021/04/19 05:13:41;;;;;;;114.50;15.83;;;5.20;99.90;;;5.47;100.00;100784.94;4974402;28;74525;-61
2021/04/19 05:16:08;;;;;;;132.63;16.10;;;5.20;99.90;;;5.21;100.00;100788.66;4968080;28;83383;-61
2021/04/19 05:18:35;;;;;;;111.17;15.23;;;5.20;99.90;;;5.53;100.00;100792.47;4971227;28;81977;-60
2021/04/19 05:21:01;;;;;;;145.23;18.37;;;5.20;99.90;;;5.46;100.00;100791.22;4975920;28;66204;-61
2021/04/19 05:23:28;;;;;;;112.70;16.40;;;5.20;99.90;;;4.97;100.00;100797.44;4954007;28;89545;-60
2021/04/19 05:25:55;;;;;;;98.57;16.13;;;5.20;99.90;;;5.36;100.00;100800.81;4963978;28;89612;-60
2021/04/19 05:28:28;;;;;;;76.40;15.93;;;5.30;99.90;;;5.25;100.00;100806.06;4959244;28;88987;-60
2021/04/19 05:30:55;;;;;;;99.53;15.63;;;5.30;99.90;;;5.61;100.00;100797.19;4946214;28;99742;-60
2021/04/19 05:33:31;;;;;;;68.23;15.47;;;5.30;99.90;;;6.02;100.00;100796.78;4944267;28;94925;-60
2021/04/19 05:35:58;;;;;;;80.57;16.37;;;5.40;99.90;;;5.76;100.00;100796.06;4975971;28;67246;-59
2021/04/19 05:38:25;;;;;;;72.10;16.17;;;5.40;99.90;;;5.62;100.00;100791.78;4973566;28;64252;-59
2021/04/19 05:40:53;;;;;;;86.63;16.30;;;5.50;99.90;;;5.46;100.00;100806.28;4969341;28;67776;-61
2021/04/19 05:43:20;;;;;;;55.63;14.93;;;5.50;99.90;;;6.00;100.00;100796.06;4953989;28;87831;-60
2021/04/19 05:45:51;;;;;;;76.67;15.57;;;5.60;99.90;;;5.92;100.00;100796.66;4930262;28;99280;-59
2021/04/19 05:48:18;;;;;;;52.33;15.60;;;5.70;99.90;;;7.12;100.00;100795.16;4936909;28;89564;-60
2021/04/19 05:50:48;;;;;;;126.60;18.43;;;5.70;99.90;;;7.08;100.00;100801.69;4992284;28;74267;-60
2021/04/19 05:53:15;;;;;;;78.50;16.17;;;5.80;99.90;;;6.93;100.00;100802.06;4992017;28;70498;-61
2021/04/19 05:55:45;;;;;;;49.47;15.67;;;5.90;99.90;;;6.78;100.00;100802.34;4980075;28;85324;-61
2021/04/19 05:58:19;;;;;;;101.17;18.43;;;6.00;99.90;;;6.45;100.00;100800.47;4989363;28;70424;-61
2021/04/19 06:00:52;;;;;;;96.57;16.77;;;6.10;99.90;;;6.51;100.00;100790.34;4984540;28;74010;-61
2021/04/19 06:03:26;;;;;;;61.13;14.83;;;6.10;99.90;;;6.42;100.00;100787.47;4980984;28;84895;-61
2021/04/19 06:06:05;;;;;;;90.27;17.47;;;6.20;99.90;;;6.29;100.00;100792.03;4983304;28;75380;-59
2021/04/19 06:08:58;;;;;;;57.80;13.73;;;6.20;99.90;;;6.41;100.00;100796.41;4990846;28;66508;-59
2021/04/19 06:11:42;;;;;;;121.87;19.17;;;6.30;99.90;;;6.45;100.00;100800.47;4994307;28;66966;-59
2021/04/19 06:14:26;;;;;;;68.57;15.60;;;6.30;99.90;;;7.09;100.00;100800.72;4978122;28;69086;-60
2021/04/19 06:16:55;;;;;;;44.80;13.47;;;6.30;99.90;;;7.18;100.00;100791.97;4991893;28;59066;-61
2021/04/19 06:19:24;;;;;;;24.33;13.97;;;6.40;99.90;;;7.03;100.00;100792.41;4985815;28;56448;-61
2021/04/19 06:21:52;;;;;;;57.33;14.77;;;6.50;99.90;;;6.96;100.00;100793.84;4987307;28;57638;-60
2021/04/19 06:24:18;;;;;;;36.40;13.87;;;6.70;99.90;;;7.02;100.00;100790.69;4985578;28;52519;-61
2021/04/19 06:26:45;;;;;;;28.00;12.70;;;6.80;99.90;;;7.33;100.00;100800.53;4980585;28;48434;-60
2021/04/19 06:29:13;;;;;;;41.97;12.60;;;6.90;99.90;;;7.08;100.00;100798.19;4988268;28;50947;-61
